ROMMA est une association bénévole à but non lucratif. Votre soutien est indispensable : ADHERER à ROMMA ou FAIRE un DON

Briord - (01, Ain)

Bugey (281 m)   Longitude: 05° 29' 13" E   Latitude: 45° 46' 37" N Station partenaire n°15
 

Détail journalier du     <<     >>

Température Precipitation Humidité Pression Vent Dir Rafale Dir. rafale Ensol.
Heure (°C) (mm) (%) (hPa) (km/h) (km/h) (min)
01:00 3.2083101803SE0
02:00 2.3086101803SE0
03:00 1.3088101802SE0
04:00 0.7089101802SE0
05:00 0.0090101800---0
06:00 -0.6091101800---0
07:00 -1.2091101900---0
08:00 -0.8092101900---5
09:00 2.8087102005SSE50
10:00 5.308010202SE6SE60
11:00 6.607810202SE10O60
12:00 9.206510194ONO18NO60
13:00 10.1055101815ONO32ONO60
14:00 10.9058101818ONO32ONO60
15:00 11.2059101815NO31NNO60
16:00 11.7054101816ONO32ONO60
17:00 11.9053101716ONO31NO60
18:00 11.5052101716NO31ONO60
19:00 10.6052101816NO31NO60
20:00 9.2054101812NO27NNO55
21:00 7.805510187NNO19NO0
22:00 6.805810184NNO13N0
23:00 2.807210182N5N0
minuit 1.407710181SE5SE0

Graphique du 13-04-2019

 

Serveur OMMA